RJSF/FKS METAR and TAF weather

Enter ICAO airport designator
Station Type Date Time Source
RJSF METAR 2019/06/16 11:00 UTC NOAA

RJSF 161100Z 28007KT 240V300 9999 -SHRA FEW015 SCT030 BKN040 16/13 Q0997


Station Type Date Time Source
RJSF Decoded METAR 2019/06/16 11:00 UTC NOAA

Fukushima Airport, Japan (RJSF) 37-14N 140-26E 375M
Jun 16, 2019 - 07:00 AM EDT / 2019.06.16 1100 UTC
Wind: from the W (280 degrees) at 8 MPH (7 KT) (direction variable):0
Visibility: greater than 7 mile(s):0
Sky conditions: mostly cloudy
Weather: light rain showers
Temperature: 60 F (16 C)
Dew Point: 55 F (13 C)
Relative Humidity: 82%
Pressure (altimeter): 29.44 in. Hg (0997 hPa)
ob: RJSF 161100Z 28007KT 240V300 9999 -SHRA FEW015 SCT030 BKN040 16/13 Q0997
cycle: 11

Station Type Date Time Source
RJSF TAF 2019/06/16 18:30 UTC NOAA

TAF RJSF 161709Z 1618/1800 32015KT 9999 FEW020 BKN040
TEMPO 1621/1706 32015G25KT
BECMG 1712/1715 36004KT

Example: see airport list